Time;durP1;ratioP1;P1;durP2;ratioP2;P2;SDS_P1;SDS_P2;PMS_P1;PMS_P2;Temp;Humidity;BMP_temperature;BMP_pressure;BME280_temperature;BME280_humidity;BME280_pressure;Samples;Min_cycle;Max_cycle;Signal;HPM_P1;HPM_P2
2022/01/05 00:00:17;;;;;;;4.67;0.83;;;3.70;99.90;;;;;;5011797;28;20214;-94
2022/01/05 00:02:49;;;;;;;2.30;0.87;;;3.70;99.90;;;;;;5009673;28;20222;-94
2022/01/05 00:05:21;;;;;;;7.80;1.20;;;3.70;99.90;;;;;;5012529;28;20217;-94
2022/01/05 00:07:55;;;;;;;2.57;0.80;;;3.70;99.90;;;;;;5002834;28;20238;-94
2022/01/05 00:10:29;;;;;;;2.70;0.90;;;3.60;99.90;;;;;;5005593;28;20210;-95
2022/01/05 00:15:49;;;;;;;4.27;1.30;;;3.50;99.90;;;;;;5205821;22;20241;-94
2022/01/05 00:18:20;;;;;;;3.00;1.10;;;3.50;99.90;;;;;;5013634;28;20210;-92
2022/01/05 00:20:55;;;;;;;2.77;1.40;;;3.50;99.90;;;;;;5016888;28;20221;-93
2022/01/05 00:23:26;;;;;;;3.47;1.03;;;3.50;99.90;;;;;;5032232;28;20205;-92
2022/01/05 00:26:03;;;;;;;2.00;1.00;;;3.50;99.90;;;;;;5031443;28;20209;-93
2022/01/05 00:28:34;;;;;;;2.97;1.33;;;3.50;99.90;;;;;;5030120;28;20229;-93
2022/01/05 00:31:06;;;;;;;3.33;1.17;;;3.50;99.90;;;;;;5030680;28;20214;-94
2022/01/05 00:33:39;;;;;;;1.83;0.80;;;3.40;99.90;;;;;;5030401;28;20206;-94
2022/01/05 00:36:11;;;;;;;3.10;1.20;;;3.40;99.90;;;;;;5030796;28;20217;-95
2022/01/05 00:38:42;;;;;;;2.57;0.80;;;3.40;99.90;;;;;;5012248;28;20221;-95
2022/01/05 00:41:15;;;;;;;2.63;1.03;;;3.40;99.90;;;;;;5029822;28;20217;-94
2022/01/05 00:43:48;;;;;;;3.00;0.90;;;3.40;99.90;;;;;;5030742;28;20240;-95
2022/01/05 00:46:20;;;;;;;1.23;0.80;;;3.40;99.90;;;;;;5030804;28;20224;-94
2022/01/05 00:48:53;;;;;;;3.80;0.90;;;3.40;99.90;;;;;;5027426;28;20241;-94
2022/01/05 00:51:25;;;;;;;2.53;0.90;;;3.40;99.90;;;;;;5027206;28;20209;-94
2022/01/05 00:53:56;;;;;;;3.40;0.90;;;3.40;99.90;;;;;;5030252;28;20209;-93
2022/01/05 00:56:29;;;;;;;7.40;1.03;;;3.30;99.90;;;;;;5028098;28;20209;-93
2022/01/05 00:59:02;;;;;;;2.93;0.80;;;3.40;99.90;;;;;;5014024;28;20205;-93
2022/01/05 01:01:36;;;;;;;2.40;0.80;;;3.30;99.90;;;;;;5032191;28;20224;-93
2022/01/05 01:04:08;;;;;;;3.70;1.00;;;3.30;99.90;;;;;;5032262;28;20209;-93
2022/01/05 01:06:39;;;;;;;3.13;0.97;;;3.30;99.90;;;;;;5029959;28;20202;-94
2022/01/05 01:09:14;;;;;;;3.23;0.67;;;3.30;99.90;;;;;;5029795;28;20197;-94
2022/01/05 01:11:48;;;;;;;2.63;0.90;;;3.30;99.90;;;;;;5028657;28;20248;-93
2022/01/05 01:14:19;;;;;;;4.13;1.10;;;3.30;99.90;;;;;;5009528;28;20217;-94
2022/01/05 01:16:50;;;;;;;2.77;0.80;;;3.30;99.90;;;;;;4999087;28;20607;-95
2022/01/05 01:19:23;;;;;;;6.17;1.07;;;3.30;99.90;;;;;;5033479;28;20197;-94
2022/01/05 01:21:58;;;;;;;3.17;1.30;;;3.30;99.90;;;;;;5020833;28;20204;-94
2022/01/05 01:24:30;;;;;;;3.03;1.27;;;3.30;99.90;;;;;;5020846;28;20185;-94
2022/01/05 01:27:04;;;;;;;2.13;1.20;;;3.30;99.90;;;;;;5036396;28;20198;-91
2022/01/05 01:29:36;;;;;;;3.43;1.20;;;3.30;99.90;;;;;;5037032;28;20201;-95
2022/01/05 01:32:08;;;;;;;2.47;1.17;;;3.30;99.90;;;;;;5015681;28;20210;-94
2022/01/05 01:34:53;;;;;;;3.80;1.47;;;3.30;99.90;;;;;;5029317;28;20212;-94
2022/01/05 01:37:25;;;;;;;5.40;1.20;;;3.30;99.90;;;;;;5027018;28;20217;-94
2022/01/05 01:39:58;;;;;;;6.57;1.60;;;3.20;99.90;;;;;;5013308;28;20226;-94
2022/01/05 01:42:32;;;;;;;2.70;0.90;;;3.20;99.90;;;;;;5031859;28;20213;-95
2022/01/05 01:45:06;;;;;;;8.90;1.53;;;3.20;99.90;;;;;;5028281;28;20212;-95
2022/01/05 01:47:39;;;;;;;5.17;1.20;;;3.20;99.90;;;;;;5029519;28;20238;-95
2022/01/05 01:50:12;;;;;;;5.97;1.33;;;3.20;99.90;;;;;;5029246;28;20245;-95
2022/01/05 01:52:44;;;;;;;2.10;1.10;;;3.20;99.90;;;;;;5029185;28;20658;-95
2022/01/05 01:55:16;;;;;;;6.37;1.50;;;3.10;99.90;;;;;;5034463;28;20216;-94
2022/01/05 01:57:51;;;;;;;5.63;1.10;;;3.10;99.90;;;;;;5020724;28;20205;-94
2022/01/05 02:00:29;;;;;;;4.87;1.50;;;3.10;99.90;;;;;;5038333;28;20224;-87
2022/01/05 02:05:42;;;;;;;4.20;1.33;;;3.10;99.90;;;;;;5303332;22;20260;-94
2022/01/05 02:08:14;;;;;;;3.83;1.27;;;3.20;99.90;;;;;;5039215;28;20236;-94
2022/01/05 02:10:46;;;;;;;1.90;0.90;;;3.10;99.90;;;;;;5039953;28;20193;-91
2022/01/05 02:13:21;;;;;;;3.53;1.30;;;3.10;99.90;;;;;;5038031;28;20201;-92
2022/01/05 02:15:53;;;;;;;2.47;1.00;;;3.20;99.90;;;;;;5029273;28;20202;-93
2022/01/05 02:21:16;;;;;;;3.10;1.07;;;3.10;99.90;;;;;;5031140;28;20233;-94
2022/01/05 02:23:51;;;;;;;2.83;1.43;;;3.20;99.90;;;;;;5032909;28;20209;-94
2022/01/05 02:26:22;;;;;;;4.30;1.50;;;3.20;99.90;;;;;;5031990;28;20213;-95
2022/01/05 02:28:53;;;;;;;3.97;1.10;;;3.10;99.90;;;;;;5023200;28;20225;-95
2022/01/05 02:36:56;;;;;;;3.33;1.27;;;3.10;99.90;;;;;;5701237;23;20262;-94
2022/01/05 02:39:27;;;;;;;1.67;0.83;;;3.10;99.90;;;;;;5052387;28;20227;-95
2022/01/05 02:42:00;;;;;;;2.70;0.90;;;3.10;99.90;;;;;;5052736;28;20209;-93
2022/01/05 02:44:32;;;;;;;2.87;0.90;;;3.10;99.90;;;;;;5051776;28;20213;-95
2022/01/05 02:47:04;;;;;;;1.27;0.80;;;3.10;99.90;;;;;;5050104;28;20224;-94
2022/01/05 02:49:36;;;;;;;4.43;1.33;;;3.10;99.90;;;;;;5052005;28;20225;-93
2022/01/05 02:52:10;;;;;;;2.53;0.97;;;3.10;99.90;;;;;;5052342;28;20236;-93
2022/01/05 02:54:45;;;;;;;3.43;1.10;;;3.10;99.90;;;;;;5052668;28;20661;-95
2022/01/05 02:57:16;;;;;;;2.03;1.10;;;3.10;99.90;;;;;;5045469;28;20244;-96
2022/01/05 02:59:47;;;;;;;2.13;1.03;;;3.20;99.90;;;;;;5054625;28;20193;-94
2022/01/05 03:02:19;;;;;;;1.83;1.27;;;3.20;99.90;;;;;;5055790;28;20197;-93
2022/01/05 03:04:50;;;;;;;1.97;1.23;;;3.20;99.90;;;;;;5053145;28;20204;-93
2022/01/05 03:07:24;;;;;;;2.23;1.07;;;3.20;99.90;;;;;;5047385;28;20231;-94
2022/01/05 03:09:56;;;;;;;2.87;1.40;;;3.20;99.90;;;;;;5049525;28;20239;-94
2022/01/05 03:15:11;;;;;;;4.40;1.37;;;3.10;99.90;;;;;;5646843;23;20321;-94
2022/01/05 03:17:43;;;;;;;4.30;1.30;;;3.20;99.90;;;;;;5033774;28;20213;-94
2022/01/05 03:20:17;;;;;;;2.37;1.67;;;3.20;99.90;;;;;;5026847;28;20265;-94
2022/01/05 03:22:51;;;;;;;5.00;1.40;;;3.20;99.90;;;;;;5032191;28;20209;-95
2022/01/05 03:25:24;;;;;;;3.20;1.30;;;3.20;99.90;;;;;;5030291;28;20209;-94
2022/01/05 03:27:56;;;;;;;7.33;1.50;;;3.20;99.90;;;;;;5031584;28;20202;-93
2022/01/05 03:30:29;;;;;;;2.57;1.30;;;3.20;99.90;;;;;;5032578;28;20212;-93
2022/01/05 03:33:11;;;;;;;2.37;1.10;;;3.20;99.90;;;;;;5032467;28;20237;-94
2022/01/05 03:35:45;;;;;;;4.03;0.90;;;3.20;99.90;;;;;;5031959;28;20214;-94
2022/01/05 03:38:23;;;;;;;2.20;1.00;;;3.20;99.90;;;;;;5029326;28;20217;-96
2022/01/05 03:40:55;;;;;;;2.57;1.13;;;3.20;99.90;;;;;;5031661;28;20218;-94
2022/01/05 03:43:27;;;;;;;1.50;0.90;;;3.20;99.90;;;;;;5032405;28;20244;-95
2022/01/05 03:48:43;;;;;;;1.53;0.80;;;3.10;99.90;;;;;;5461631;22;20291;-94
2022/01/05 03:51:15;;;;;;;2.13;0.70;;;3.10;99.90;;;;;;5032316;28;20288;-94
2022/01/05 03:53:50;;;;;;;1.60;0.70;;;3.10;99.90;;;;;;5024539;28;20264;-94
2022/01/05 03:56:20;;;;;;;2.30;0.90;;;3.10;99.90;;;;;;5032307;28;20208;-93
2022/01/05 03:58:52;;;;;;;3.43;0.83;;;3.10;99.90;;;;;;5033935;28;20209;-94
2022/01/05 04:01:23;;;;;;;2.70;0.90;;;3.10;99.90;;;;;;5025950;28;20221;-93
2022/01/05 04:03:55;;;;;;;1.83;0.90;;;3.10;99.90;;;;;;5033691;28;20245;-94
2022/01/05 04:06:26;;;;;;;2.73;0.87;;;3.10;99.90;;;;;;5022880;28;20309;-94
2022/01/05 04:08:59;;;;;;;0.87;0.70;;;3.20;99.90;;;;;;5015274;28;20265;-94
2022/01/05 04:11:32;;;;;;;1.97;1.00;;;3.20;99.90;;;;;;5032265;28;20209;-93
2022/01/05 04:14:04;;;;;;;1.53;1.00;;;3.20;99.90;;;;;;5035178;28;20220;-94
2022/01/05 04:16:36;;;;;;;1.93;1.30;;;3.20;99.90;;;;;;5033124;28;20244;-94
2022/01/05 04:19:08;;;;;;;1.77;0.97;;;3.20;99.90;;;;;;5034813;28;20213;-92
2022/01/05 04:21:39;;;;;;;2.80;1.00;;;3.20;99.90;;;;;;5037189;28;20210;-93
2022/01/05 04:24:14;;;;;;;3.70;1.10;;;3.20;99.90;;;;;;5037813;28;20186;-92
2022/01/05 04:26:46;;;;;;;4.17;1.60;;;3.20;99.90;;;;;;5030886;28;20237;-94
2022/01/05 04:29:17;;;;;;;2.60;1.53;;;3.30;99.90;;;;;;5030599;28;20233;-94
2022/01/05 04:31:50;;;;;;;2.53;1.20;;;3.30;99.90;;;;;;5030995;28;20209;-94
2022/01/05 04:34:21;;;;;;;2.37;1.67;;;3.30;99.90;;;;;;5019449;28;20275;-94
2022/01/05 04:37:12;;;;;;;3.43;1.77;;;3.30;99.90;;;;;;5307091;23;20319;-94
2022/01/05 04:39:47;;;;;;;2.40;1.53;;;3.30;99.90;;;;;;5024232;28;20210;-94
2022/01/05 04:42:18;;;;;;;6.60;2.73;;;3.20;99.90;;;;;;5024325;28;20639;-95
2022/01/05 04:44:50;;;;;;;3.67;2.73;;;3.40;99.90;;;;;;5018134;28;20662;-93
2022/01/05 04:47:20;;;;;;;5.93;2.53;;;3.30;99.90;;;;;;5022448;28;20189;-94
2022/01/05 04:49:52;;;;;;;3.37;2.50;;;3.30;99.90;;;;;;5030102;28;20272;-95
2022/01/05 04:52:23;;;;;;;3.10;2.10;;;3.30;99.90;;;;;;5030613;28;20281;-95
2022/01/05 04:54:56;;;;;;;2.97;2.47;;;3.20;99.90;;;;;;5030164;28;20198;-95
2022/01/05 04:57:27;;;;;;;4.67;3.23;;;3.10;99.90;;;;;;5022556;28;20229;-94
2022/01/05 05:00:00;;;;;;;5.87;3.73;;;3.10;99.90;;;;;;5018636;28;20201;-94
2022/01/05 05:02:31;;;;;;;4.63;3.17;;;3.10;99.90;;;;;;5019142;28;20658;-95
2022/01/05 05:05:02;;;;;;;6.77;3.87;;;3.10;99.90;;;;;;5137810;23;20332;-93
2022/01/05 05:07:33;;;;;;;6.00;3.90;;;3.10;99.90;;;;;;5029350;28;20221;-91
2022/01/05 05:10:09;;;;;;;6.90;4.50;;;3.00;99.90;;;;;;5032421;28;20220;-93
2022/01/05 05:12:41;;;;;;;5.20;3.63;;;3.00;99.90;;;;;;5031013;28;20201;-94
2022/01/05 05:15:12;;;;;;;4.47;3.37;;;3.00;99.90;;;;;;5015157;28;20209;-94
2022/01/05 05:17:44;;;;;;;5.57;3.70;;;3.00;99.90;;;;;;5026694;28;20209;-94
2022/01/05 05:22:52;;;;;;;6.00;3.40;;;3.10;99.90;;;;;;5448228;23;20289;-94
2022/01/05 05:25:26;;;;;;;4.43;3.10;;;3.00;99.90;;;;;;5050275;28;20208;-93
2022/01/05 05:27:57;;;;;;;7.67;3.70;;;3.00;99.90;;;;;;5049316;28;20212;-94
2022/01/05 05:30:36;;;;;;;7.53;3.87;;;3.00;99.90;;;;;;5031930;28;20245;-93
2022/01/05 05:33:07;;;;;;;7.53;3.97;;;3.00;99.90;;;;;;5022849;28;20213;-92
2022/01/05 05:35:39;;;;;;;5.77;3.43;;;3.00;99.90;;;;;;5025677;28;20208;-93
2022/01/05 05:38:12;;;;;;;5.00;3.97;;;3.00;99.90;;;;;;5030489;28;20197;-94
2022/01/05 05:40:45;;;;;;;4.93;3.47;;;3.00;99.90;;;;;;5030467;28;20264;-94
2022/01/05 05:43:17;;;;;;;7.10;3.40;;;3.10;99.90;;;;;;5027606;28;20240;-93
2022/01/05 05:45:48;;;;;;;6.33;4.03;;;3.10;99.90;;;;;;5022672;28;20237;-94
2022/01/05 05:48:20;;;;;;;7.43;4.63;;;3.10;99.90;;;;;;5029014;28;20209;-93
2022/01/05 05:50:51;;;;;;;7.30;4.10;;;3.10;99.90;;;;;;5024415;28;20244;-94
2022/01/05 05:53:22;;;;;;;4.67;4.10;;;3.10;99.90;;;;;;5022647;28;20674;-94
2022/01/05 05:55:56;;;;;;;6.50;4.83;;;3.10;99.90;;;;;;5022755;28;20210;-93
2022/01/05 05:58:27;;;;;;;5.97;4.60;;;3.00;99.90;;;;;;5022429;28;20233;-94
2022/01/05 06:00:58;;;;;;;5.07;4.57;;;2.90;99.90;;;;;;5023225;28;20217;-95
2022/01/05 06:03:30;;;;;;;7.97;4.97;;;3.00;99.90;;;;;;5023053;28;20221;-93
2022/01/05 06:06:00;;;;;;;5.90;5.03;;;3.00;99.90;;;;;;5022585;28;20666;-93
2022/01/05 06:08:32;;;;;;;5.20;4.70;;;3.00;99.90;;;;;;5040498;28;20236;-94
2022/01/05 06:11:04;;;;;;;6.83;4.70;;;3.00;99.90;;;;;;5045039;28;20253;-94
2022/01/05 06:13:35;;;;;;;5.93;4.73;;;3.00;99.90;;;;;;5053890;28;20224;-94
2022/01/05 06:16:06;;;;;;;5.23;4.73;;;2.90;99.90;;;;;;5048010;28;20212;-94
2022/01/05 06:18:38;;;;;;;6.80;5.07;;;2.90;99.90;;;;;;5057902;28;20272;-92
2022/01/05 06:21:09;;;;;;;6.13;4.87;;;2.90;99.90;;;;;;5058001;28;20217;-94
2022/01/05 06:23:40;;;;;;;10.53;6.90;;;2.90;99.90;;;;;;5056618;28;20213;-94
2022/01/05 06:26:13;;;;;;;7.67;6.13;;;2.90;99.90;;;;;;5054431;28;20209;-94
2022/01/05 06:28:44;;;;;;;7.13;5.47;;;3.00;99.90;;;;;;5049366;28;20208;-92
2022/01/05 06:31:15;;;;;;;7.63;5.90;;;3.00;99.90;;;;;;5053259;28;20232;-93
2022/01/05 06:33:47;;;;;;;8.23;6.40;;;3.00;99.90;;;;;;5056563;28;20257;-94
2022/01/05 06:36:20;;;;;;;7.83;5.70;;;3.00;99.90;;;;;;5058083;28;20189;-95
2022/01/05 06:38:51;;;;;;;31.03;6.80;;;3.00;99.90;;;;;;5058793;28;20260;-95
2022/01/05 06:41:24;;;;;;;6.73;4.97;;;3.00;99.90;;;;;;5059285;28;20199;-93
2022/01/05 06:43:55;;;;;;;8.03;5.33;;;3.10;99.90;;;;;;5059189;28;20193;-93
2022/01/05 06:46:26;;;;;;;8.27;5.67;;;3.10;99.90;;;;;;5057985;28;20185;-94
2022/01/05 06:48:57;;;;;;;11.17;5.30;;;3.00;99.90;;;;;;5059144;28;20261;-95
2022/01/05 06:54:00;;;;;;;8.63;5.93;;;3.00;99.90;;;;;;4989882;28;20207;-94
2022/01/05 06:56:32;;;;;;;7.03;5.27;;;3.00;99.90;;;;;;4988177;28;20686;-94
2022/01/05 06:59:03;;;;;;;6.43;5.13;;;3.00;99.90;;;;;;4987315;28;20239;-95
2022/01/05 07:01:35;;;;;;;5.80;5.00;;;3.00;99.90;;;;;;4990373;28;20215;-93
2022/01/05 07:04:06;;;;;;;6.50;4.90;;;3.00;99.90;;;;;;4985830;28;20215;-94
2022/01/05 07:06:37;;;;;;;7.20;5.90;;;3.00;99.90;;;;;;4984893;28;20211;-93
2022/01/05 07:09:09;;;;;;;7.17;5.20;;;3.00;99.90;;;;;;4984013;28;20238;-94
2022/01/05 07:11:43;;;;;;;9.60;6.30;;;3.00;99.90;;;;;;4982832;28;20238;-93
2022/01/05 07:14:15;;;;;;;5.97;5.03;;;3.00;99.90;;;;;;4969335;29;20218;-94
2022/01/05 07:16:46;;;;;;;6.93;5.30;;;3.00;99.90;;;;;;4971632;29;20676;-94
2022/01/05 07:19:19;;;;;;;6.90;5.83;;;3.00;99.90;;;;;;4965145;29;20216;-94
2022/01/05 07:21:50;;;;;;;6.03;5.20;;;3.00;99.90;;;;;;4963634;29;20282;-93
2022/01/05 07:24:21;;;;;;;7.93;5.63;;;3.10;99.90;;;;;;4982093;28;20211;-94
2022/01/05 07:26:54;;;;;;;7.07;5.67;;;3.10;99.90;;;;;;4980530;28;20222;-94
2022/01/05 07:29:25;;;;;;;6.03;5.17;;;3.10;99.90;;;;;;4980673;28;20221;-93
2022/01/05 07:31:56;;;;;;;7.70;5.17;;;3.00;99.90;;;;;;4980081;28;20249;-93
2022/01/05 07:34:27;;;;;;;6.43;5.73;;;3.00;99.90;;;;;;4980310;28;20215;-94
2022/01/05 07:36:58;;;;;;;7.20;5.60;;;3.00;99.90;;;;;;4981677;28;20222;-94
2022/01/05 07:39:28;;;;;;;5.80;4.97;;;3.00;99.90;;;;;;4987710;28;20552;-94
2022/01/05 07:42:02;;;;;;;7.37;5.40;;;3.10;99.90;;;;;;4980747;28;20230;-94
2022/01/05 07:44:32;;;;;;;6.80;5.33;;;3.10;99.90;;;;;;4980838;28;20192;-94
2022/01/05 07:47:07;;;;;;;7.97;5.70;;;3.10;99.90;;;;;;4979564;28;20207;-94
2022/01/05 07:49:39;;;;;;;6.30;5.60;;;3.10;99.90;;;;;;4979385;28;20250;-92
2022/01/05 07:52:10;;;;;;;8.37;5.60;;;3.10;99.90;;;;;;4979300;28;20239;-92
2022/01/05 07:54:41;;;;;;;6.83;5.17;;;3.00;99.90;;;;;;4979362;28;20239;-94
2022/01/05 07:57:14;;;;;;;7.10;5.27;;;3.00;99.90;;;;;;4978532;28;20250;-94
2022/01/05 07:59:45;;;;;;;7.60;5.40;;;3.00;99.90;;;;;;4981788;28;20308;-93
2022/01/05 08:02:18;;;;;;;7.63;5.60;;;3.00;99.90;;;;;;5344843;23;20253;-94
2022/01/05 08:04:49;;;;;;;9.37;5.50;;;3.00;99.90;;;;;;5005908;28;20746;-94
2022/01/05 08:07:21;;;;;;;6.03;5.40;;;3.00;99.90;;;;;;4998517;28;20206;-94
2022/01/05 08:09:52;;;;;;;7.17;5.10;;;3.00;99.90;;;;;;4999033;28;20237;-94
2022/01/05 08:12:25;;;;;;;7.63;5.50;;;3.00;99.90;;;;;;4999606;28;20254;-94
2022/01/05 08:14:56;;;;;;;7.50;5.60;;;3.00;99.90;;;;;;4999268;28;20233;-94
2022/01/05 08:17:28;;;;;;;6.13;5.53;;;3.00;99.90;;;;;;5000026;28;20230;-94
2022/01/05 08:20:00;;;;;;;6.20;4.97;;;3.00;99.90;;;;;;5009269;28;20209;-94
2022/01/05 08:22:30;;;;;;;9.40;6.13;;;3.00;99.90;;;;;;5019236;28;20827;-93
2022/01/05 08:25:02;;;;;;;8.70;5.97;;;3.10;99.90;;;;;;5020867;28;20264;-94
2022/01/05 08:27:37;;;;;;;8.03;6.40;;;3.00;99.90;;;;;;5018537;28;20534;-94
2022/01/05 08:30:09;;;;;;;6.90;5.60;;;3.10;99.90;;;;;;5018972;28;20304;-94
2022/01/05 08:32:41;;;;;;;6.97;5.43;;;3.10;99.90;;;;;;5020547;28;20221;-94
2022/01/05 08:35:12;;;;;;;6.60;5.67;;;3.10;99.90;;;;;;5020378;28;20205;-94
2022/01/05 08:37:44;;;;;;;6.83;5.37;;;3.10;99.90;;;;;;4993195;28;20232;-94
2022/01/05 08:40:17;;;;;;;5.80;5.20;;;3.10;99.90;;;;;;5000819;28;20282;-93
2022/01/05 08:42:50;;;;;;;147.97;12.17;;;3.00;99.90;;;;;;4982143;28;20233;-94
2022/01/05 08:45:22;;;;;;;6.43;5.77;;;3.00;99.90;;;;;;4998315;28;20297;-93
2022/01/05 08:47:54;;;;;;;8.87;5.80;;;3.00;99.90;;;;;;4998958;28;20207;-93
2022/01/05 08:50:28;;;;;;;6.90;6.17;;;3.10;99.90;;;;;;5005727;28;20278;-92
2022/01/05 08:53:00;;;;;;;8.07;6.30;;;3.10;99.90;;;;;;5000353;28;20241;-94
2022/01/05 08:55:33;;;;;;;7.20;6.23;;;3.00;99.90;;;;;;5010114;28;20225;-93
2022/01/05 08:58:06;;;;;;;7.70;6.07;;;3.10;99.90;;;;;;5014578;28;20207;-93
2022/01/05 09:00:38;;;;;;;7.10;4.93;;;3.10;99.90;;;;;;4984279;28;20195;-94
2022/01/05 09:03:10;;;;;;;5.80;4.93;;;3.10;99.90;;;;;;5010686;28;20222;-92
2022/01/05 09:05:41;;;;;;;5.67;4.40;;;3.10;99.90;;;;;;5011101;28;20202;-94
2022/01/05 09:08:12;;;;;;;6.00;3.70;;;3.10;99.90;;;;;;5005393;28;20272;-94
2022/01/05 09:10:45;;;;;;;4.60;3.47;;;3.20;99.90;;;;;;5001511;28;20206;-94
2022/01/05 09:13:18;;;;;;;4.73;3.93;;;3.20;99.90;;;;;;5000265;28;20203;-94
2022/01/05 09:15:49;;;;;;;5.77;3.87;;;3.10;99.90;;;;;;5005623;28;20248;-94
2022/01/05 09:18:19;;;;;;;4.80;3.17;;;3.20;99.90;;;;;;4998147;28;20202;-94
2022/01/05 09:20:51;;;;;;;5.47;3.70;;;3.20;99.90;;;;;;5004677;28;20246;-92
2022/01/05 09:23:22;;;;;;;5.23;3.07;;;3.10;99.90;;;;;;5002167;28;20606;-93
2022/01/05 09:25:53;;;;;;;5.17;3.70;;;3.10;99.90;;;;;;4983050;28;20284;-94
2022/01/05 09:28:27;;;;;;;2.90;2.60;;;3.10;99.90;;;;;;4977192;28;20212;-93
2022/01/05 09:30:58;;;;;;;3.17;2.17;;;3.10;99.90;;;;;;4982320;28;20233;-93
2022/01/05 09:33:30;;;;;;;2.50;1.60;;;3.20;99.90;;;;;;4966085;28;20207;-92
2022/01/05 09:36:07;;;;;;;1.87;1.23;;;3.10;99.90;;;;;;4979590;28;20234;-93
2022/01/05 09:41:56;;;;;;;3.60;1.87;;;3.10;99.90;;;;;;4978706;28;20234;-91
2022/01/05 09:44:27;;;;;;;3.30;1.40;;;3.20;99.90;;;;;;4969330;28;20207;-94
2022/01/05 09:47:14;;;;;;;2.73;1.50;;;3.20;99.90;;;;;;4976560;28;20232;-93
2022/01/05 09:49:54;;;;;;;3.43;1.10;;;3.20;99.90;;;;;;4997434;28;20206;-93
2022/01/05 09:52:27;;;;;;;1.30;1.20;;;3.20;99.90;;;;;;4998284;28;20256;-94
2022/01/05 09:54:58;;;;;;;1.47;1.13;;;3.20;99.90;;;;;;4997928;28;20273;-93
2022/01/05 09:57:31;;;;;;;1.50;0.90;;;3.20;99.90;;;;;;4998364;28;20275;-94
2022/01/05 10:00:05;;;;;;;1.63;1.10;;;3.20;99.90;;;;;;4999677;28;20215;-94
2022/01/05 10:02:35;;;;;;;1.93;1.20;;;3.20;99.90;;;;;;4999738;28;20215;-95
2022/01/05 10:05:11;;;;;;;2.20;1.20;;;3.20;99.90;;;;;;4999767;28;20214;-94
2022/01/05 10:07:43;;;;;;;1.27;1.17;;;3.20;99.90;;;;;;4998656;28;20209;-95
2022/01/05 10:10:14;;;;;;;1.40;1.00;;;3.30;99.90;;;;;;4997406;28;20206;-95
2022/01/05 10:12:51;;;;;;;2.40;1.20;;;3.20;99.90;;;;;;4998176;28;20234;-94
2022/01/05 10:15:24;;;;;;;1.63;1.10;;;3.20;99.90;;;;;;5001744;28;20265;-94
2022/01/05 10:18:11;;;;;;;1.30;0.87;;;3.20;99.90;;;;;;5001174;28;20269;-95
2022/01/05 10:21:01;;;;;;;4.13;1.23;;;3.30;99.90;;;;;;5001147;28;20264;-94
2022/01/05 10:23:41;;;;;;;3.93;1.30;;;3.20;99.90;;;;;;5001254;28;20218;-95
2022/01/05 10:26:26;;;;;;;1.50;1.17;;;3.20;99.90;;;;;;5001002;28;20206;-95
2022/01/05 10:29:00;;;;;;;2.83;1.70;;;3.30;99.90;;;;;;5002134;28;20246;-94
2022/01/05 10:31:36;;;;;;;2.10;1.30;;;3.20;99.90;;;;;;5039252;23;20264;-95
2022/01/05 10:34:18;;;;;;;1.80;1.43;;;3.30;99.90;;;;;;5011731;28;20282;-94
2022/01/05 10:36:50;;;;;;;1.57;1.07;;;3.40;99.90;;;;;;5001344;28;20233;-94
2022/01/05 10:39:29;;;;;;;1.37;0.80;;;3.30;99.90;;;;;;5001689;28;20273;-94
2022/01/05 10:42:06;;;;;;;1.30;0.90;;;3.20;99.90;;;;;;5002585;28;20290;-94
2022/01/05 10:44:37;;;;;;;2.10;0.90;;;3.20;99.90;;;;;;5003950;28;20592;-93
2022/01/05 10:47:10;;;;;;;2.63;1.10;;;3.20;99.90;;;;;;5004209;28;20314;-94
2022/01/05 10:49:42;;;;;;;1.70;1.00;;;3.20;99.90;;;;;;5003855;28;20316;-93
2022/01/05 10:52:26;;;;;;;2.53;1.00;;;3.20;99.90;;;;;;5003371;28;20341;-94
2022/01/05 10:55:09;;;;;;;1.13;0.80;;;3.20;99.90;;;;;;5003529;28;20297;-95
2022/01/05 10:57:40;;;;;;;1.37;0.80;;;3.20;99.90;;;;;;5002609;28;20206;-94
2022/01/05 11:00:12;;;;;;;3.33;1.10;;;3.20;99.90;;;;;;5003181;28;20570;-95
2022/01/05 11:02:45;;;;;;;1.47;0.97;;;3.20;99.90;;;;;;5002406;28;20578;-93
2022/01/05 11:05:17;;;;;;;2.13;1.07;;;3.10;99.90;;;;;;5002486;28;20210;-93
2022/01/05 11:07:48;;;;;;;2.53;1.10;;;3.10;99.90;;;;;;5005347;28;20221;-94
2022/01/05 11:10:20;;;;;;;4.10;0.90;;;3.00;99.90;;;;;;5002991;28;20679;-95
2022/01/05 11:12:54;;;;;;;2.27;0.80;;;3.00;99.90;;;;;;4988385;28;20241;-94
2022/01/05 11:15:28;;;;;;;2.10;1.23;;;3.00;99.90;;;;;;5018595;28;20196;-95
2022/01/05 11:18:18;;;;;;;2.17;0.83;;;3.00;99.90;;;;;;5017833;28;20542;-95
2022/01/05 11:20:52;;;;;;;1.03;0.80;;;3.10;99.90;;;;;;5018484;28;20194;-95
2022/01/05 11:23:25;;;;;;;2.53;0.90;;;3.00;99.90;;;;;;5018868;28;20217;-96
2022/01/05 11:25:57;;;;;;;2.93;0.70;;;3.00;99.90;;;;;;5018381;28;20198;-95
2022/01/05 11:28:30;;;;;;;1.00;0.67;;;3.00;99.90;;;;;;5017199;28;20206;-95
2022/01/05 11:31:01;;;;;;;1.33;0.97;;;3.00;99.90;;;;;;5016785;28;20201;-95
2022/01/05 11:33:35;;;;;;;1.33;1.10;;;2.90;99.90;;;;;;5034267;28;20213;-94
2022/01/05 11:36:08;;;;;;;1.47;1.00;;;3.00;99.90;;;;;;5035929;28;20233;-95
2022/01/05 11:38:58;;;;;;;3.17;1.07;;;2.90;99.90;;;;;;4997463;28;20254;-95
2022/01/05 11:41:31;;;;;;;1.43;1.10;;;2.90;99.90;;;;;;4998017;28;20186;-93
2022/01/05 11:44:05;;;;;;;2.67;1.20;;;2.80;99.90;;;;;;4995177;28;20215;-94
2022/01/05 11:46:38;;;;;;;2.07;1.30;;;2.80;99.90;;;;;;5005845;28;20204;-94
2022/01/05 11:49:13;;;;;;;1.10;0.90;;;2.80;99.90;;;;;;5010739;28;20214;-94
2022/01/05 11:51:52;;;;;;;1.93;1.10;;;2.80;99.90;;;;;;5003308;28;20285;-94
2022/01/05 11:54:25;;;;;;;1.40;1.00;;;2.80;99.90;;;;;;5005021;28;20226;-94
2022/01/05 11:56:58;;;;;;;2.63;0.90;;;2.80;99.90;;;;;;5003048;28;20202;-94
2022/01/05 11:59:36;;;;;;;2.10;1.07;;;2.80;99.90;;;;;;5004448;28;20352;-93
2022/01/05 12:02:12;;;;;;;1.13;0.93;;;2.80;99.90;;;;;;5001825;28;20626;-95
2022/01/05 12:05:03;;;;;;;2.37;1.37;;;2.80;99.90;;;;;;5003330;28;20298;-95
2022/01/05 12:07:40;;;;;;;1.47;1.03;;;2.80;99.90;;;;;;5000720;28;20206;-95
2022/01/05 12:10:16;;;;;;;3.53;1.30;;;2.80;99.90;;;;;;5000153;28;20210;-95
2022/01/05 12:13:02;;;;;;;2.40;1.30;;;2.80;99.90;;;;;;5000865;28;20248;-95
2022/01/05 12:15:52;;;;;;;2.40;1.37;;;2.80;99.90;;;;;;4985327;28;20290;-94
2022/01/05 12:18:26;;;;;;;2.00;1.60;;;2.80;99.90;;;;;;5018107;28;20297;-95
2022/01/05 12:21:00;;;;;;;2.23;1.70;;;2.80;99.90;;;;;;5018347;28;20201;-95
2022/01/05 12:23:32;;;;;;;2.57;1.47;;;2.80;99.90;;;;;;5018652;28;20287;-96
2022/01/05 12:26:17;;;;;;;2.37;1.60;;;2.70;99.90;;;;;;5019496;28;20216;-95
2022/01/05 12:28:57;;;;;;;2.13;1.70;;;2.80;99.90;;;;;;5020646;28;20594;-95
2022/01/05 12:31:53;;;;;;;3.17;1.63;;;2.80;99.90;;;;;;5018281;28;20244;-95
2022/01/05 12:34:54;;;;;;;2.97;1.80;;;2.70;99.90;;;;;;5018313;28;20288;-93
2022/01/05 12:37:46;;;;;;;2.50;1.87;;;2.80;99.90;;;;;;5017715;28;20201;-92
2022/01/05 12:40:26;;;;;;;2.17;1.87;;;2.80;99.90;;;;;;5018922;28;20232;-93
2022/01/05 12:43:33;;;;;;;3.83;1.70;;;2.80;99.90;;;;;;5017818;28;20697;-93
2022/01/05 12:46:10;;;;;;;1.83;1.40;;;2.70;99.90;;;;;;5017734;28;20260;-94
2022/01/05 12:49:01;;;;;;;1.93;1.77;;;2.70;99.90;;;;;;5018152;28;20296;-94
2022/01/05 12:51:43;;;;;;;3.27;1.90;;;2.70;99.90;;;;;;5017873;28;20209;-94
2022/01/05 12:54:19;;;;;;;3.70;1.93;;;2.70;99.90;;;;;;5017476;28;20261;-94
2022/01/05 12:56:54;;;;;;;2.30;1.73;;;2.80;99.90;;;;;;5010468;28;20531;-93
2022/01/05 12:59:29;;;;;;;3.17;1.90;;;2.70;99.90;;;;;;4996949;28;20271;-95
2022/01/05 13:02:03;;;;;;;3.63;1.80;;;2.80;99.90;;;;;;4997229;28;20217;-94
2022/01/05 13:04:35;;;;;;;4.60;1.57;;;2.80;99.90;;;;;;4997325;28;20532;-94
2022/01/05 13:07:07;;;;;;;5.20;2.07;;;2.80;99.90;;;;;;5004772;28;20245;-91
2022/01/05 13:09:52;;;;;;;1.93;1.63;;;2.80;99.90;;;;;;4998332;28;20580;-94
2022/01/05 13:12:24;;;;;;;3.40;1.90;;;2.70;99.90;;;;;;4997170;28;20202;-93
2022/01/05 13:14:56;;;;;;;3.77;2.10;;;2.70;99.90;;;;;;4980459;28;20230;-94
2022/01/05 13:17:30;;;;;;;4.80;2.10;;;2.70;99.90;;;;;;5001586;28;20235;-96
2022/01/05 13:20:03;;;;;;;2.60;2.30;;;2.70;99.90;;;;;;5003934;28;20216;-95
2022/01/05 13:22:37;;;;;;;4.07;2.50;;;2.70;99.90;;;;;;4998655;28;20236;-95
2022/01/05 13:25:11;;;;;;;1.93;1.70;;;2.70;99.90;;;;;;4997721;28;20206;-94
2022/01/05 13:27:45;;;;;;;3.97;2.20;;;2.70;99.90;;;;;;4997787;28;20206;-93
2022/01/05 13:30:19;;;;;;;3.10;2.07;;;2.70;99.90;;;;;;4998658;28;20289;-94
2022/01/05 13:32:50;;;;;;;2.73;2.10;;;2.70;99.90;;;;;;5016471;28;20237;-94
2022/01/05 13:35:25;;;;;;;2.53;2.30;;;2.70;99.90;;;;;;5033454;28;20264;-95
2022/01/05 13:37:57;;;;;;;2.67;2.40;;;2.70;99.90;;;;;;5014816;28;20205;-94
2022/01/05 13:40:31;;;;;;;3.23;2.50;;;2.70;99.90;;;;;;5001704;28;20328;-96
2022/01/05 13:43:05;;;;;;;3.43;2.70;;;2.70;99.90;;;;;;5004204;28;20213;-93
2022/01/05 13:45:38;;;;;;;4.33;2.63;;;2.70;99.90;;;;;;4997060;28;20238;-94
2022/01/05 13:48:12;;;;;;;3.90;2.93;;;2.70;99.90;;;;;;4999336;28;20257;-93
2022/01/05 13:50:44;;;;;;;2.90;2.60;;;2.60;99.90;;;;;;5002854;28;20237;-94
2022/01/05 13:53:18;;;;;;;3.13;2.70;;;2.60;99.90;;;;;;4986043;28;20213;-94
2022/01/05 13:55:53;;;;;;;3.77;2.60;;;2.60;99.90;;;;;;5004738;28;20210;-94
2022/01/05 13:58:26;;;;;;;3.57;2.50;;;2.60;99.90;;;;;;5002705;28;20210;-94